sensor_id;sensor_type;location;lat;lon;timestamp;P1;durP1;ratioP1;P2;durP2;ratioP2
67528;SDS011;54366;51.980;5.856;2022-09-17T00:00:24;5.15;;;1.23;;
67528;SDS011;54366;51.980;5.856;2022-09-17T00:02:51;7.15;;;1.92;;
67528;SDS011;54366;51.980;5.856;2022-09-17T00:05:21;5.07;;;1.50;;
67528;SDS011;54366;51.980;5.856;2022-09-17T00:07:49;3.95;;;1.15;;
67528;SDS011;54366;51.980;5.856;2022-09-17T00:10:17;5.55;;;1.40;;
67528;SDS011;54366;51.980;5.856;2022-09-17T00:12:44;5.65;;;1.65;;
67528;SDS011;54366;51.980;5.856;2022-09-17T00:15:11;6.57;;;1.48;;
67528;SDS011;54366;51.980;5.856;2022-09-17T00:17:38;8.07;;;2.22;;
67528;SDS011;54366;51.980;5.856;2022-09-17T00:20:05;7.07;;;1.65;;
67528;SDS011;54366;51.980;5.856;2022-09-17T00:22:35;5.88;;;1.70;;
67528;SDS011;54366;51.980;5.856;2022-09-17T00:25:02;6.20;;;1.65;;
67528;SDS011;54366;51.980;5.856;2022-09-17T00:27:29;9.60;;;2.15;;
67528;SDS011;54366;51.980;5.856;2022-09-17T00:29:56;5.60;;;1.52;;
67528;SDS011;54366;51.980;5.856;2022-09-17T00:32:22;8.32;;;2.50;;
67528;SDS011;54366;51.980;5.856;2022-09-17T00:34:49;9.63;;;2.05;;
67528;SDS011;54366;51.980;5.856;2022-09-17T00:37:17;7.68;;;1.60;;
67528;SDS011;54366;51.980;5.856;2022-09-17T00:39:44;6.55;;;1.38;;
67528;SDS011;54366;51.980;5.856;2022-09-17T00:42:10;5.43;;;1.45;;
67528;SDS011;54366;51.980;5.856;2022-09-17T00:47:33;8.63;;;1.90;;
67528;SDS011;54366;51.980;5.856;2022-09-17T00:50:09;4.93;;;1.40;;
67528;SDS011;54366;51.980;5.856;2022-09-17T00:52:43;6.20;;;1.67;;
67528;SDS011;54366;51.980;5.856;2022-09-17T00:55:28;8.38;;;2.17;;
67528;SDS011;54366;51.980;5.856;2022-09-17T00:57:58;8.45;;;1.83;;
67528;SDS011;54366;51.980;5.856;2022-09-17T01:00:27;5.88;;;1.40;;
67528;SDS011;54366;51.980;5.856;2022-09-17T01:02:55;4.85;;;1.20;;
67528;SDS011;54366;51.980;5.856;2022-09-17T01:05:46;6.88;;;1.83;;
67528;SDS011;54366;51.980;5.856;2022-09-17T01:08:31;8.10;;;1.80;;
67528;SDS011;54366;51.980;5.856;2022-09-17T01:19:24;7.47;;;1.67;;
67528;SDS011;54366;51.980;5.856;2022-09-17T01:22:30;7.93;;;1.48;;
67528;SDS011;54366;51.980;5.856;2022-09-17T01:25:23;6.75;;;1.30;;
67528;SDS011;54366;51.980;5.856;2022-09-17T01:39:25;7.05;;;1.50;;
67528;SDS011;54366;51.980;5.856;2022-09-17T01:44:38;7.55;;;1.80;;
67528;SDS011;54366;51.980;5.856;2022-09-17T01:50:26;7.13;;;1.70;;
67528;SDS011;54366;51.980;5.856;2022-09-17T01:52:58;6.82;;;1.70;;
67528;SDS011;54366;51.980;5.856;2022-09-17T01:55:28;5.38;;;1.20;;
67528;SDS011;54366;51.980;5.856;2022-09-17T01:58:01;7.97;;;1.55;;
67528;SDS011;54366;51.980;5.856;2022-09-17T02:00:35;4.47;;;1.40;;
67528;SDS011;54366;51.980;5.856;2022-09-17T02:05:43;6.47;;;1.77;;
67528;SDS011;54366;51.980;5.856;2022-09-17T02:08:22;6.55;;;1.55;;
67528;SDS011;54366;51.980;5.856;2022-09-17T02:10:59;7.63;;;1.73;;
67528;SDS011;54366;51.980;5.856;2022-09-17T02:13:40;6.15;;;1.48;;
67528;SDS011;54366;51.980;5.856;2022-09-17T02:16:24;8.32;;;1.70;;
67528;SDS011;54366;51.980;5.856;2022-09-17T02:24:18;6.97;;;1.65;;
67528;SDS011;54366;51.980;5.856;2022-09-17T02:29:22;7.32;;;1.38;;
67528;SDS011;54366;51.980;5.856;2022-09-17T02:32:09;6.10;;;1.48;;
67528;SDS011;54366;51.980;5.856;2022-09-17T02:34:36;6.32;;;1.45;;
67528;SDS011;54366;51.980;5.856;2022-09-17T02:37:04;7.60;;;1.80;;
67528;SDS011;54366;51.980;5.856;2022-09-17T02:39:31;7.43;;;1.48;;
67528;SDS011;54366;51.980;5.856;2022-09-17T02:50:16;5.90;;;1.38;;
67528;SDS011;54366;51.980;5.856;2022-09-17T02:53:01;8.13;;;1.10;;
67528;SDS011;54366;51.980;5.856;2022-09-17T03:00:56;6.97;;;1.60;;
67528;SDS011;54366;51.980;5.856;2022-09-17T03:03:29;5.30;;;1.35;;
67528;SDS011;54366;51.980;5.856;2022-09-17T03:06:00;8.27;;;1.50;;
67528;SDS011;54366;51.980;5.856;2022-09-17T03:08:27;7.60;;;1.73;;
67528;SDS011;54366;51.980;5.856;2022-09-17T03:10:55;8.23;;;1.48;;
67528;SDS011;54366;51.980;5.856;2022-09-17T03:13:21;6.55;;;1.50;;
67528;SDS011;54366;51.980;5.856;2022-09-17T03:15:47;7.38;;;1.48;;
67528;SDS011;54366;51.980;5.856;2022-09-17T03:18:13;7.43;;;1.63;;
67528;SDS011;54366;51.980;5.856;2022-09-17T03:20:40;5.65;;;1.25;;
67528;SDS011;54366;51.980;5.856;2022-09-17T03:23:06;6.82;;;1.27;;
67528;SDS011;54366;51.980;5.856;2022-09-17T03:25:32;6.70;;;1.42;;
67528;SDS011;54366;51.980;5.856;2022-09-17T03:27:58;6.47;;;1.38;;
67528;SDS011;54366;51.980;5.856;2022-09-17T03:30:25;6.05;;;1.35;;
67528;SDS011;54366;51.980;5.856;2022-09-17T03:32:51;9.77;;;1.48;;
67528;SDS011;54366;51.980;5.856;2022-09-17T03:35:17;7.45;;;1.38;;
67528;SDS011;54366;51.980;5.856;2022-09-17T03:37:43;7.43;;;1.25;;
67528;SDS011;54366;51.980;5.856;2022-09-17T03:40:12;6.47;;;1.50;;
67528;SDS011;54366;51.980;5.856;2022-09-17T03:42:38;5.45;;;1.27;;
67528;SDS011;54366;51.980;5.856;2022-09-17T03:45:04;4.38;;;0.88;;
67528;SDS011;54366;51.980;5.856;2022-09-17T03:47:31;5.13;;;1.20;;
67528;SDS011;54366;51.980;5.856;2022-09-17T03:49:57;5.43;;;1.02;;
67528;SDS011;54366;51.980;5.856;2022-09-17T03:52:23;4.40;;;1.00;;
67528;SDS011;54366;51.980;5.856;2022-09-17T03:54:49;6.07;;;1.20;;
67528;SDS011;54366;51.980;5.856;2022-09-17T03:57:16;5.50;;;1.30;;
67528;SDS011;54366;51.980;5.856;2022-09-17T03:59:42;5.05;;;1.10;;
67528;SDS011;54366;51.980;5.856;2022-09-17T04:02:08;7.20;;;1.48;;
67528;SDS011;54366;51.980;5.856;2022-09-17T04:04:34;4.28;;;0.80;;
67528;SDS011;54366;51.980;5.856;2022-09-17T04:07:01;4.80;;;1.13;;
67528;SDS011;54366;51.980;5.856;2022-09-17T04:09:27;7.10;;;1.02;;
67528;SDS011;54366;51.980;5.856;2022-09-17T04:11:53;4.72;;;0.90;;
67528;SDS011;54366;51.980;5.856;2022-09-17T04:14:19;4.90;;;1.05;;
67528;SDS011;54366;51.980;5.856;2022-09-17T04:16:46;5.85;;;1.08;;
67528;SDS011;54366;51.980;5.856;2022-09-17T04:19:12;5.90;;;1.13;;
67528;SDS011;54366;51.980;5.856;2022-09-17T04:21:38;4.82;;;0.98;;
67528;SDS011;54366;51.980;5.856;2022-09-17T04:24:04;6.20;;;0.90;;
67528;SDS011;54366;51.980;5.856;2022-09-17T04:26:30;5.88;;;1.15;;
67528;SDS011;54366;51.980;5.856;2022-09-17T04:28:57;5.53;;;1.05;;
67528;SDS011;54366;51.980;5.856;2022-09-17T04:31:23;7.35;;;1.20;;
67528;SDS011;54366;51.980;5.856;2022-09-17T04:33:51;5.28;;;0.95;;
67528;SDS011;54366;51.980;5.856;2022-09-17T04:36:18;5.78;;;0.90;;
67528;SDS011;54366;51.980;5.856;2022-09-17T04:38:46;5.15;;;0.80;;
67528;SDS011;54366;51.980;5.856;2022-09-17T04:41:13;4.93;;;0.90;;
67528;SDS011;54366;51.980;5.856;2022-09-17T04:43:39;4.10;;;0.80;;
67528;SDS011;54366;51.980;5.856;2022-09-17T04:46:05;5.43;;;1.15;;
67528;SDS011;54366;51.980;5.856;2022-09-17T04:48:32;5.07;;;1.10;;
67528;SDS011;54366;51.980;5.856;2022-09-17T04:50:58;6.35;;;1.00;;
67528;SDS011;54366;51.980;5.856;2022-09-17T04:53:24;4.35;;;1.00;;
67528;SDS011;54366;51.980;5.856;2022-09-17T04:55:50;4.20;;;0.93;;
67528;SDS011;54366;51.980;5.856;2022-09-17T04:58:17;2.95;;;0.90;;
67528;SDS011;54366;51.980;5.856;2022-09-17T05:00:43;5.22;;;1.00;;
67528;SDS011;54366;51.980;5.856;2022-09-17T05:03:09;8.02;;;1.00;;
67528;SDS011;54366;51.980;5.856;2022-09-17T05:05:35;5.53;;;1.13;;
67528;SDS011;54366;51.980;5.856;2022-09-17T05:08:02;6.88;;;1.27;;
67528;SDS011;54366;51.980;5.856;2022-09-17T05:10:28;6.82;;;1.08;;
67528;SDS011;54366;51.980;5.856;2022-09-17T05:12:55;4.15;;;0.90;;
67528;SDS011;54366;51.980;5.856;2022-09-17T05:15:22;6.53;;;1.23;;
67528;SDS011;54366;51.980;5.856;2022-09-17T05:17:49;5.45;;;1.30;;
67528;SDS011;54366;51.980;5.856;2022-09-17T05:20:16;6.18;;;1.10;;
67528;SDS011;54366;51.980;5.856;2022-09-17T05:22:43;4.60;;;1.00;;
67528;SDS011;54366;51.980;5.856;2022-09-17T05:25:11;4.72;;;1.20;;
67528;SDS011;54366;51.980;5.856;2022-09-17T05:27:38;7.00;;;1.73;;
67528;SDS011;54366;51.980;5.856;2022-09-17T05:30:05;6.03;;;1.77;;
67528;SDS011;54366;51.980;5.856;2022-09-17T05:32:33;5.65;;;1.45;;
67528;SDS011;54366;51.980;5.856;2022-09-17T05:34:59;5.28;;;1.38;;
67528;SDS011;54366;51.980;5.856;2022-09-17T05:37:26;5.18;;;1.20;;
67528;SDS011;54366;51.980;5.856;2022-09-17T05:39:52;6.78;;;1.10;;
67528;SDS011;54366;51.980;5.856;2022-09-17T05:42:18;6.13;;;1.40;;
67528;SDS011;54366;51.980;5.856;2022-09-17T05:44:44;6.15;;;1.33;;
67528;SDS011;54366;51.980;5.856;2022-09-17T05:47:10;5.68;;;1.02;;
67528;SDS011;54366;51.980;5.856;2022-09-17T05:49:37;4.63;;;1.00;;
67528;SDS011;54366;51.980;5.856;2022-09-17T05:52:03;6.47;;;1.13;;
67528;SDS011;54366;51.980;5.856;2022-09-17T05:54:29;5.47;;;0.93;;
67528;SDS011;54366;51.980;5.856;2022-09-17T05:56:56;5.90;;;1.27;;
67528;SDS011;54366;51.980;5.856;2022-09-17T05:59:22;6.45;;;1.17;;
67528;SDS011;54366;51.980;5.856;2022-09-17T06:01:48;5.20;;;0.93;;
67528;SDS011;54366;51.980;5.856;2022-09-17T06:04:15;3.40;;;1.08;;
67528;SDS011;54366;51.980;5.856;2022-09-17T06:06:42;4.07;;;0.93;;
67528;SDS011;54366;51.980;5.856;2022-09-17T06:09:08;3.53;;;0.82;;
67528;SDS011;54366;51.980;5.856;2022-09-17T06:11:35;5.22;;;1.00;;
67528;SDS011;54366;51.980;5.856;2022-09-17T06:14:02;4.05;;;0.90;;
67528;SDS011;54366;51.980;5.856;2022-09-17T06:16:29;4.50;;;0.75;;
67528;SDS011;54366;51.980;5.856;2022-09-17T06:18:55;3.40;;;0.80;;
67528;SDS011;54366;51.980;5.856;2022-09-17T06:21:21;6.80;;;0.98;;
67528;SDS011;54366;51.980;5.856;2022-09-17T06:23:48;3.05;;;0.80;;
67528;SDS011;54366;51.980;5.856;2022-09-17T06:26:15;4.10;;;1.02;;
67528;SDS011;54366;51.980;5.856;2022-09-17T06:28:42;4.68;;;1.05;;
67528;SDS011;54366;51.980;5.856;2022-09-17T06:31:09;3.97;;;0.80;;
67528;SDS011;54366;51.980;5.856;2022-09-17T06:33:36;4.25;;;0.95;;
67528;SDS011;54366;51.980;5.856;2022-09-17T06:36:04;3.92;;;0.75;;
67528;SDS011;54366;51.980;5.856;2022-09-17T06:38:32;3.53;;;0.70;;
67528;SDS011;54366;51.980;5.856;2022-09-17T06:40:59;3.20;;;0.63;;
67528;SDS011;54366;51.980;5.856;2022-09-17T06:43:26;3.05;;;0.60;;
67528;SDS011;54366;51.980;5.856;2022-09-17T06:45:57;3.42;;;0.88;;
67528;SDS011;54366;51.980;5.856;2022-09-17T06:48:25;4.43;;;0.80;;
67528;SDS011;54366;51.980;5.856;2022-09-17T06:50:52;4.63;;;1.27;;
67528;SDS011;54366;51.980;5.856;2022-09-17T06:53:20;4.03;;;0.80;;
67528;SDS011;54366;51.980;5.856;2022-09-17T06:55:47;3.92;;;0.70;;
67528;SDS011;54366;51.980;5.856;2022-09-17T06:58:13;3.63;;;0.88;;
67528;SDS011;54366;51.980;5.856;2022-09-17T07:00:40;3.70;;;0.57;;
67528;SDS011;54366;51.980;5.856;2022-09-17T07:03:07;4.63;;;1.70;;
67528;SDS011;54366;51.980;5.856;2022-09-17T07:05:33;5.90;;;1.95;;
67528;SDS011;54366;51.980;5.856;2022-09-17T07:08:00;4.43;;;1.50;;
67528;SDS011;54366;51.980;5.856;2022-09-17T07:10:27;3.38;;;1.30;;
67528;SDS011;54366;51.980;5.856;2022-09-17T07:12:54;3.30;;;1.20;;
67528;SDS011;54366;51.980;5.856;2022-09-17T07:15:20;3.75;;;0.90;;
67528;SDS011;54366;51.980;5.856;2022-09-17T07:17:46;3.55;;;0.80;;
67528;SDS011;54366;51.980;5.856;2022-09-17T07:20:13;3.65;;;0.55;;
67528;SDS011;54366;51.980;5.856;2022-09-17T07:22:39;2.05;;;0.60;;
67528;SDS011;54366;51.980;5.856;2022-09-17T07:25:05;4.55;;;0.47;;
67528;SDS011;54366;51.980;5.856;2022-09-17T07:27:32;3.70;;;0.50;;
67528;SDS011;54366;51.980;5.856;2022-09-17T07:29:59;4.30;;;0.80;;
67528;SDS011;54366;51.980;5.856;2022-09-17T07:32:25;4.72;;;0.63;;
67528;SDS011;54366;51.980;5.856;2022-09-17T07:34:54;3.42;;;0.63;;
67528;SDS011;54366;51.980;5.856;2022-09-17T07:37:21;4.60;;;1.00;;
67528;SDS011;54366;51.980;5.856;2022-09-17T07:39:47;2.33;;;0.57;;
67528;SDS011;54366;51.980;5.856;2022-09-17T07:42:13;4.88;;;0.75;;
67528;SDS011;54366;51.980;5.856;2022-09-17T07:44:39;3.70;;;0.60;;
67528;SDS011;54366;51.980;5.856;2022-09-17T07:47:05;4.10;;;0.50;;
67528;SDS011;54366;51.980;5.856;2022-09-17T07:49:32;2.95;;;0.50;;
67528;SDS011;54366;51.980;5.856;2022-09-17T07:51:59;2.53;;;0.75;;
67528;SDS011;54366;51.980;5.856;2022-09-17T07:54:31;2.80;;;0.70;;
67528;SDS011;54366;51.980;5.856;2022-09-17T07:57:02;3.83;;;0.60;;
67528;SDS011;54366;51.980;5.856;2022-09-17T07:59:28;3.75;;;0.55;;
67528;SDS011;54366;51.980;5.856;2022-09-17T08:01:54;2.60;;;0.82;;
67528;SDS011;54366;51.980;5.856;2022-09-17T08:04:20;3.28;;;0.70;;
67528;SDS011;54366;51.980;5.856;2022-09-17T08:06:47;5.25;;;0.93;;
67528;SDS011;54366;51.980;5.856;2022-09-17T08:09:14;3.28;;;0.60;;
67528;SDS011;54366;51.980;5.856;2022-09-17T08:11:41;4.13;;;0.70;;
67528;SDS011;54366;51.980;5.856;2022-09-17T08:14:12;3.97;;;0.60;;
67528;SDS011;54366;51.980;5.856;2022-09-17T08:16:40;2.85;;;0.63;;
67528;SDS011;54366;51.980;5.856;2022-09-17T08:19:06;3.40;;;0.88;;
67528;SDS011;54366;51.980;5.856;2022-09-17T08:21:35;3.53;;;0.80;;
67528;SDS011;54366;51.980;5.856;2022-09-17T08:24:01;3.53;;;0.85;;
67528;SDS011;54366;51.980;5.856;2022-09-17T08:26:27;5.22;;;0.88;;
67528;SDS011;54366;51.980;5.856;2022-09-17T08:28:54;3.58;;;0.80;;
67528;SDS011;54366;51.980;5.856;2022-09-17T08:31:21;4.72;;;0.90;;
67528;SDS011;54366;51.980;5.856;2022-09-17T08:33:49;5.78;;;1.02;;
67528;SDS011;54366;51.980;5.856;2022-09-17T08:36:16;5.63;;;0.70;;
67528;SDS011;54366;51.980;5.856;2022-09-17T08:38:44;5.55;;;1.02;;
67528;SDS011;54366;51.980;5.856;2022-09-17T08:46:27;3.63;;;0.95;;
67528;SDS011;54366;51.980;5.856;2022-09-17T08:54:25;3.15;;;0.60;;
67528;SDS011;54366;51.980;5.856;2022-09-17T08:57:28;3.83;;;0.70;;
67528;SDS011;54366;51.980;5.856;2022-09-17T08:59:59;2.47;;;0.40;;
67528;SDS011;54366;51.980;5.856;2022-09-17T09:02:58;2.50;;;0.50;;
67528;SDS011;54366;51.980;5.856;2022-09-17T09:05:53;1.85;;;0.47;;
67528;SDS011;54366;51.980;5.856;2022-09-17T09:08:30;2.58;;;0.60;;
67528;SDS011;54366;51.980;5.856;2022-09-17T09:11:05;2.58;;;0.32;;
67528;SDS011;54366;51.980;5.856;2022-09-17T09:13:40;3.35;;;0.40;;
67528;SDS011;54366;51.980;5.856;2022-09-17T09:16:23;3.08;;;0.63;;
67528;SDS011;54366;51.980;5.856;2022-09-17T09:18:52;3.28;;;0.70;;
67528;SDS011;54366;51.980;5.856;2022-09-17T09:21:35;0.95;;;0.30;;
67528;SDS011;54366;51.980;5.856;2022-09-17T09:29:48;2.90;;;0.50;;
67528;SDS011;54366;51.980;5.856;2022-09-17T09:35:01;2.83;;;0.50;;
67528;SDS011;54366;51.980;5.856;2022-09-17T09:37:43;4.97;;;0.70;;
67528;SDS011;54366;51.980;5.856;2022-09-17T09:43:19;5.88;;;0.60;;
67528;SDS011;54366;51.980;5.856;2022-09-17T09:45:56;1.90;;;0.32;;
67528;SDS011;54366;51.980;5.856;2022-09-17T09:48:41;3.10;;;0.50;;
67528;SDS011;54366;51.980;5.856;2022-09-17T09:54:31;4.13;;;0.52;;
67528;SDS011;54366;51.980;5.856;2022-09-17T09:57:21;1.73;;;0.38;;
67528;SDS011;54366;51.980;5.856;2022-09-17T10:00:20;3.00;;;0.50;;
67528;SDS011;54366;51.980;5.856;2022-09-17T10:11:29;4.10;;;0.43;;
67528;SDS011;54366;51.980;5.856;2022-09-17T10:16:49;1.63;;;0.30;;
67528;SDS011;54366;51.980;5.856;2022-09-17T10:19:34;2.83;;;0.30;;
67528;SDS011;54366;51.980;5.856;2022-09-17T10:22:07;3.10;;;0.60;;
67528;SDS011;54366;51.980;5.856;2022-09-17T10:24:50;1.83;;;0.60;;
67528;SDS011;54366;51.980;5.856;2022-09-17T10:27:18;3.20;;;0.40;;
67528;SDS011;54366;51.980;5.856;2022-09-17T10:29:49;2.40;;;0.35;;
67528;SDS011;54366;51.980;5.856;2022-09-17T10:32:19;1.95;;;0.40;;
67528;SDS011;54366;51.980;5.856;2022-09-17T10:37:47;4.22;;;0.50;;
67528;SDS011;54366;51.980;5.856;2022-09-17T10:42:45;2.17;;;0.40;;
67528;SDS011;54366;51.980;5.856;2022-09-17T10:45:24;2.17;;;0.47;;
67528;SDS011;54366;51.980;5.856;2022-09-17T10:47:52;1.40;;;0.28;;
67528;SDS011;54366;51.980;5.856;2022-09-17T10:50:26;1.50;;;0.30;;
67528;SDS011;54366;51.980;5.856;2022-09-17T10:52:57;2.28;;;0.60;;
67528;SDS011;54366;51.980;5.856;2022-09-17T11:00:41;1.15;;;0.30;;
67528;SDS011;54366;51.980;5.856;2022-09-17T11:18:14;1.67;;;0.40;;
67528;SDS011;54366;51.980;5.856;2022-09-17T11:26:34;4.30;;;0.60;;
67528;SDS011;54366;51.980;5.856;2022-09-17T11:35:16;5.35;;;0.90;;
67528;SDS011;54366;51.980;5.856;2022-09-17T11:38:03;5.40;;;1.00;;
67528;SDS011;54366;51.980;5.856;2022-09-17T11:40:47;4.20;;;1.05;;
67528;SDS011;54366;51.980;5.856;2022-09-17T11:43:25;5.22;;;1.13;;
67528;SDS011;54366;51.980;5.856;2022-09-17T11:46:07;6.10;;;1.42;;
67528;SDS011;54366;51.980;5.856;2022-09-17T11:54:25;4.10;;;0.85;;
67528;SDS011;54366;51.980;5.856;2022-09-17T11:57:10;5.50;;;1.30;;
67528;SDS011;54366;51.980;5.856;2022-09-17T11:59:49;7.40;;;1.63;;
67528;SDS011;54366;51.980;5.856;2022-09-17T12:18:56;3.85;;;0.80;;
67528;SDS011;54366;51.980;5.856;2022-09-17T12:21:41;2.63;;;0.50;;
67528;SDS011;54366;51.980;5.856;2022-09-17T12:24:16;3.00;;;0.50;;
67528;SDS011;54366;51.980;5.856;2022-09-17T12:30:04;2.28;;;0.30;;
67528;SDS011;54366;51.980;5.856;2022-09-17T12:44:33;2.92;;;0.60;;
67528;SDS011;54366;51.980;5.856;2022-09-17T12:55:05;2.03;;;0.30;;
67528;SDS011;54366;51.980;5.856;2022-09-17T12:57:42;1.75;;;0.40;;
67528;SDS011;54366;51.980;5.856;2022-09-17T13:00:31;3.05;;;0.70;;
67528;SDS011;54366;51.980;5.856;2022-09-17T13:11:22;2.72;;;0.77;;
67528;SDS011;54366;51.980;5.856;2022-09-17T13:14:18;2.60;;;0.52;;
67528;SDS011;54366;51.980;5.856;2022-09-17T13:19:29;2.88;;;1.08;;
67528;SDS011;54366;51.980;5.856;2022-09-17T13:22:04;3.42;;;0.80;;
67528;SDS011;54366;51.980;5.856;2022-09-17T13:24:44;3.83;;;0.80;;
67528;SDS011;54366;51.980;5.856;2022-09-17T13:27:19;3.83;;;0.85;;
67528;SDS011;54366;51.980;5.856;2022-09-17T13:40:21;5.15;;;0.88;;
67528;SDS011;54366;51.980;5.856;2022-09-17T13:42:49;4.38;;;0.80;;
67528;SDS011;54366;51.980;5.856;2022-09-17T13:45:20;4.88;;;0.90;;
67528;SDS011;54366;51.980;5.856;2022-09-17T13:47:57;4.53;;;0.70;;
67528;SDS011;54366;51.980;5.856;2022-09-17T14:05:53;4.82;;;0.80;;
67528;SDS011;54366;51.980;5.856;2022-09-17T14:08:24;6.18;;;1.58;;
67528;SDS011;54366;51.980;5.856;2022-09-17T14:10:56;4.82;;;1.02;;
67528;SDS011;54366;51.980;5.856;2022-09-17T14:13:26;5.70;;;1.25;;
67528;SDS011;54366;51.980;5.856;2022-09-17T14:19:01;6.47;;;1.42;;
67528;SDS011;54366;51.980;5.856;2022-09-17T14:21:45;5.45;;;1.27;;
67528;SDS011;54366;51.980;5.856;2022-09-17T14:24:34;5.95;;;1.05;;
67528;SDS011;54366;51.980;5.856;2022-09-17T14:29:48;4.10;;;0.82;;
67528;SDS011;54366;51.980;5.856;2022-09-17T14:35:20;3.83;;;0.82;;
67528;SDS011;54366;51.980;5.856;2022-09-17T14:38:07;5.70;;;1.40;;
67528;SDS011;54366;51.980;5.856;2022-09-17T14:40:34;5.88;;;1.00;;
67528;SDS011;54366;51.980;5.856;2022-09-17T14:43:00;7.95;;;1.23;;
67528;SDS011;54366;51.980;5.856;2022-09-17T14:45:30;4.32;;;1.10;;
67528;SDS011;54366;51.980;5.856;2022-09-17T14:48:17;5.45;;;0.93;;
67528;SDS011;54366;51.980;5.856;2022-09-17T14:53:43;4.13;;;0.80;;
67528;SDS011;54366;51.980;5.856;2022-09-17T14:56:10;4.95;;;0.80;;
67528;SDS011;54366;51.980;5.856;2022-09-17T14:58:40;4.03;;;0.90;;
67528;SDS011;54366;51.980;5.856;2022-09-17T15:01:26;3.20;;;0.82;;
67528;SDS011;54366;51.980;5.856;2022-09-17T15:06:38;7.25;;;1.08;;
67528;SDS011;54366;51.980;5.856;2022-09-17T15:09:41;3.78;;;0.77;;
67528;SDS011;54366;51.980;5.856;2022-09-17T15:12:00;2.00;;;0.47;;
67528;SDS011;54366;51.980;5.856;2022-09-17T15:14:29;5.20;;;1.13;;
67528;SDS011;54366;51.980;5.856;2022-09-17T15:16:59;5.65;;;0.82;;
67528;SDS011;54366;51.980;5.856;2022-09-17T15:19:32;5.35;;;0.90;;
67528;SDS011;54366;51.980;5.856;2022-09-17T15:22:35;4.50;;;1.05;;
67528;SDS011;54366;51.980;5.856;2022-09-17T15:24:59;4.20;;;0.90;;
67528;SDS011;54366;51.980;5.856;2022-09-17T15:27:37;4.25;;;0.90;;
67528;SDS011;54366;51.980;5.856;2022-09-17T15:30:21;4.05;;;0.73;;
67528;SDS011;54366;51.980;5.856;2022-09-17T15:32:49;3.80;;;0.82;;
67528;SDS011;54366;51.980;5.856;2022-09-17T15:35:23;2.85;;;0.60;;
67528;SDS011;54366;51.980;5.856;2022-09-17T15:37:58;4.90;;;0.80;;
67528;SDS011;54366;51.980;5.856;2022-09-17T15:40:35;6.60;;;1.30;;
67528;SDS011;54366;51.980;5.856;2022-09-17T15:45:45;4.85;;;0.80;;
67528;SDS011;54366;51.980;5.856;2022-09-17T15:48:33;4.10;;;0.80;;
67528;SDS011;54366;51.980;5.856;2022-09-17T15:51:04;5.43;;;1.00;;
67528;SDS011;54366;51.980;5.856;2022-09-17T15:53:49;3.40;;;0.70;;
67528;SDS011;54366;51.980;5.856;2022-09-17T15:56:21;4.80;;;1.15;;
67528;SDS011;54366;51.980;5.856;2022-09-17T15:59:02;4.93;;;1.13;;
67528;SDS011;54366;51.980;5.856;2022-09-17T16:08:56;7.85;;;1.65;;
67528;SDS011;54366;51.980;5.856;2022-09-17T16:11:27;3.55;;;1.10;;
67528;SDS011;54366;51.980;5.856;2022-09-17T16:13:56;3.15;;;0.95;;
67528;SDS011;54366;51.980;5.856;2022-09-17T16:16:26;5.93;;;1.60;;
67528;SDS011;54366;51.980;5.856;2022-09-17T16:18:53;4.97;;;1.30;;
67528;SDS011;54366;51.980;5.856;2022-09-17T16:21:19;5.32;;;1.77;;
67528;SDS011;54366;51.980;5.856;2022-09-17T16:23:46;4.70;;;1.63;;
67528;SDS011;54366;51.980;5.856;2022-09-17T16:26:13;6.68;;;1.30;;
67528;SDS011;54366;51.980;5.856;2022-09-17T16:28:43;5.45;;;1.58;;
67528;SDS011;54366;51.980;5.856;2022-09-17T16:31:11;6.22;;;1.45;;
67528;SDS011;54366;51.980;5.856;2022-09-17T16:33:38;8.18;;;1.70;;
67528;SDS011;54366;51.980;5.856;2022-09-17T16:36:05;6.47;;;1.73;;
67528;SDS011;54366;51.980;5.856;2022-09-17T16:38:32;6.95;;;1.52;;
67528;SDS011;54366;51.980;5.856;2022-09-17T16:40:58;4.50;;;1.60;;
67528;SDS011;54366;51.980;5.856;2022-09-17T16:43:24;7.97;;;2.17;;
67528;SDS011;54366;51.980;5.856;2022-09-17T16:45:57;5.65;;;1.48;;
67528;SDS011;54366;51.980;5.856;2022-09-17T16:48:28;7.95;;;1.90;;
67528;SDS011;54366;51.980;5.856;2022-09-17T16:50:54;3.85;;;1.50;;
67528;SDS011;54366;51.980;5.856;2022-09-17T16:53:20;4.70;;;1.50;;
67528;SDS011;54366;51.980;5.856;2022-09-17T16:55:47;3.88;;;1.20;;
67528;SDS011;54366;51.980;5.856;2022-09-17T16:58:13;5.78;;;1.50;;
67528;SDS011;54366;51.980;5.856;2022-09-17T17:00:42;6.07;;;1.20;;
67528;SDS011;54366;51.980;5.856;2022-09-17T17:03:12;5.57;;;1.58;;
67528;SDS011;54366;51.980;5.856;2022-09-17T17:05:39;4.97;;;1.40;;
67528;SDS011;54366;51.980;5.856;2022-09-17T17:08:06;5.78;;;1.67;;
67528;SDS011;54366;51.980;5.856;2022-09-17T17:10:33;5.60;;;1.60;;
67528;SDS011;54366;51.980;5.856;2022-09-17T17:13:00;3.97;;;1.20;;
67528;SDS011;54366;51.980;5.856;2022-09-17T17:15:26;5.20;;;1.10;;
67528;SDS011;54366;51.980;5.856;2022-09-17T17:17:52;4.28;;;1.30;;
67528;SDS011;54366;51.980;5.856;2022-09-17T17:20:19;5.57;;;1.45;;
67528;SDS011;54366;51.980;5.856;2022-09-17T17:22:46;3.88;;;1.38;;
67528;SDS011;54366;51.980;5.856;2022-09-17T17:25:13;3.47;;;0.90;;
67528;SDS011;54366;51.980;5.856;2022-09-17T17:27:39;3.75;;;1.15;;
67528;SDS011;54366;51.980;5.856;2022-09-17T17:30:06;4.03;;;0.95;;
67528;SDS011;54366;51.980;5.856;2022-09-17T17:32:34;4.05;;;1.30;;
67528;SDS011;54366;51.980;5.856;2022-09-17T17:35:01;5.80;;;1.15;;
67528;SDS011;54366;51.980;5.856;2022-09-17T17:37:28;4.25;;;1.55;;
67528;SDS011;54366;51.980;5.856;2022-09-17T17:39:55;5.63;;;2.30;;
67528;SDS011;54366;51.980;5.856;2022-09-17T17:42:22;5.80;;;3.13;;
67528;SDS011;54366;51.980;5.856;2022-09-17T17:44:48;7.88;;;3.17;;
67528;SDS011;54366;51.980;5.856;2022-09-17T17:47:15;4.05;;;1.70;;
67528;SDS011;54366;51.980;5.856;2022-09-17T17:49:41;4.28;;;1.30;;
67528;SDS011;54366;51.980;5.856;2022-09-17T17:52:09;5.63;;;1.30;;
67528;SDS011;54366;51.980;5.856;2022-09-17T17:54:35;4.43;;;1.10;;
67528;SDS011;54366;51.980;5.856;2022-09-17T17:57:01;4.35;;;1.15;;
67528;SDS011;54366;51.980;5.856;2022-09-17T17:59:27;5.22;;;1.20;;
67528;SDS011;54366;51.980;5.856;2022-09-17T18:01:53;4.40;;;1.63;;
67528;SDS011;54366;51.980;5.856;2022-09-17T18:04:19;4.00;;;1.30;;
67528;SDS011;54366;51.980;5.856;2022-09-17T18:06:46;2.58;;;1.05;;
67528;SDS011;54366;51.980;5.856;2022-09-17T18:09:12;3.70;;;1.08;;
67528;SDS011;54366;51.980;5.856;2022-09-17T18:11:39;4.90;;;0.93;;
67528;SDS011;54366;51.980;5.856;2022-09-17T18:14:05;4.88;;;1.45;;
67528;SDS011;54366;51.980;5.856;2022-09-17T18:16:32;4.93;;;1.40;;
67528;SDS011;54366;51.980;5.856;2022-09-17T18:18:58;2.45;;;0.98;;
67528;SDS011;54366;51.980;5.856;2022-09-17T18:21:24;2.55;;;0.80;;
67528;SDS011;54366;51.980;5.856;2022-09-17T18:23:51;2.08;;;0.90;;
67528;SDS011;54366;51.980;5.856;2022-09-17T18:26:19;2.10;;;0.70;;
67528;SDS011;54366;51.980;5.856;2022-09-17T18:28:47;4.38;;;1.45;;
67528;SDS011;54366;51.980;5.856;2022-09-17T18:33:56;3.42;;;0.70;;
67528;SDS011;54366;51.980;5.856;2022-09-17T18:36:23;1.85;;;0.77;;
67528;SDS011;54366;51.980;5.856;2022-09-17T18:38:51;2.35;;;0.80;;
67528;SDS011;54366;51.980;5.856;2022-09-17T18:41:22;3.05;;;0.70;;
67528;SDS011;54366;51.980;5.856;2022-09-17T18:43:49;2.38;;;0.70;;
67528;SDS011;54366;51.980;5.856;2022-09-17T18:46:15;4.15;;;0.50;;
67528;SDS011;54366;51.980;5.856;2022-09-17T18:48:41;1.13;;;0.40;;
67528;SDS011;54366;51.980;5.856;2022-09-17T18:51:09;2.88;;;0.90;;
67528;SDS011;54366;51.980;5.856;2022-09-17T18:53:37;1.92;;;0.63;;
67528;SDS011;54366;51.980;5.856;2022-09-17T18:56:05;2.10;;;0.85;;
67528;SDS011;54366;51.980;5.856;2022-09-17T18:58:46;3.13;;;0.80;;
67528;SDS011;54366;51.980;5.856;2022-09-17T19:01:14;3.20;;;0.85;;
67528;SDS011;54366;51.980;5.856;2022-09-17T19:03:41;1.63;;;0.80;;